Time,TemperatureF,DewpointF,PressureIn,WindDirection,WindDirectionDegrees,WindSpeedMPH,WindSpeedGustMPH,Humidity,HourlyPrecipIn,Conditions,Clouds,dailyrainin,SolarRadiationWatts/m^2,SoftwareType,DateUTC
2013-02-08 00:00:00,42.0,38.7,29.55,NW,323,7.0,7.0,88,0.06,-RA,,0.37,0.0,WeatherDisplay:10.37,2013-02-07 23:00:00,
2013-02-08 00:05:00,42.2,38.9,29.55,NE,46,4.6,4.6,88,0.06,-RA,,0.00,0.0,WeatherDisplay:10.37,2013-02-07 23:05:00,
2013-02-08 00:10:00,42.4,39.1,29.55,North,9,1.0,4.0,88,0.00,-RA,,0.00,0.0,WeatherDisplay:10.37,2013-02-07 23:10:00,
2013-02-08 00:15:00,42.7,39.4,29.55,North,10,1.0,4.0,88,0.00,-RA,,0.00,0.0,WeatherDisplay:10.37,2013-02-07 23:15:00,
2013-02-08 00:20:00,42.5,38.9,29.55,NE,42,2.0,4.0,87,0.00,-RA,,0.00,0.0,WeatherDisplay:10.37,2013-02-07 23:20:00,
2013-02-08 00:25:00,42.4,39.1,29.55,SSE,147,3.5,3.5,88,0.02,-RA,,0.00,0.0,WeatherDisplay:10.37,2013-02-07 23:25:00,
2013-02-08 00:30:00,42.4,39.1,29.55,South,173,2.0,6.0,88,0.00,-RA,,0.00,0.0,WeatherDisplay:10.37,2013-02-07 23:30:00,
2013-02-08 00:35:00,42.3,39.0,29.55,SW,215,2.0,4.0,88,0.00,-RA,,0.00,0.0,WeatherDisplay:10.37,2013-02-07 23:35:00,
2013-02-08 00:40:00,42.2,39.2,29.55,ESE,119,3.5,3.5,89,0.00,-RA,,0.00,0.0,WeatherDisplay:10.37,2013-02-07 23:40:00,
2013-02-08 00:45:00,42.1,39.1,29.55,SSW,196,1.0,3.0,89,0.00,-RA,,0.00,0.0,WeatherDisplay:10.37,2013-02-07 23:45:00,
2013-02-08 00:50:00,42.1,39.1,29.55,SW,221,1.0,3.0,89,0.00,-RA,,0.00,0.0,WeatherDisplay:10.37,2013-02-07 23:50:00,
2013-02-08 00:55:00,42.1,39.1,29.55,WSW,239,1.0,3.0,89,0.00,-RA,,0.00,0.0,WeatherDisplay:10.37,2013-02-07 23:55:00,
2013-02-08 01:00:00,42.0,39.0,29.55,ENE,61,2.0,4.0,89,0.00,-RA,,0.00,0.0,WeatherDisplay:10.37,2013-02-08 00:00:00,
2013-02-08 01:05:00,42.0,39.3,29.55,SE,128,2.3,2.3,90,0.00,-RA,,0.00,0.0,WeatherDisplay:10.37,2013-02-08 00:05:00,
2013-02-08 01:10:00,42.0,39.3,29.55,ESE,122,1.0,2.0,90,0.00,-RA,,0.00,0.0,WeatherDisplay:10.37,2013-02-08 00:10:00,
2013-02-08 01:15:00,42.0,39.3,29.55,NE,39,3.5,3.5,90,0.00,-RA,,0.00,0.0,WeatherDisplay:10.37,2013-02-08 00:15:00,
2013-02-08 01:20:00,41.9,39.2,29.55,ENE,67,0.0,2.0,90,0.00,-RA,,0.00,0.0,WeatherDisplay:10.37,2013-02-08 00:20:00,
2013-02-08 01:25:00,42.0,39.3,29.55,WSW,239,2.3,2.3,90,0.00,-RA,,0.00,0.0,WeatherDisplay:10.37,2013-02-08 00:25:00,
2013-02-08 01:30:00,42.1,39.4,29.55,East,85,3.5,3.5,90,0.00,-RA,,0.00,0.0,WeatherDisplay:10.37,2013-02-08 00:30:00,
2013-02-08 01:35:00,42.2,39.5,29.55,West,278,1.0,2.0,90,0.00,-RA,,0.00,0.0,WeatherDisplay:10.37,2013-02-08 00:35:00,
2013-02-08 01:40:00,42.3,39.6,29.55,NW,312,1.0,4.0,90,0.00,-RA,,0.00,0.0,WeatherDisplay:10.37,2013-02-08 00:40:00,
2013-02-08 01:45:00,42.2,39.5,29.55,East,82,2.0,5.0,90,0.00,-RA,,0.00,0.0,WeatherDisplay:10.37,2013-02-08 00:45:00,
2013-02-08 01:50:00,42.4,39.7,29.55,SSE,156,1.0,3.0,90,0.00,-RA,,0.01,0.0,WeatherDisplay:10.37,2013-02-08 00:50:00,
2013-02-08 01:55:00,42.4,39.7,29.55,West,277,1.0,2.0,90,0.00,RA,,0.01,0.0,WeatherDisplay:10.37,2013-02-08 00:55:00,
2013-02-08 02:00:00,42.5,39.8,29.55,SW,217,1.1,1.1,90,0.01,BKN,,0.01,0.0,WeatherDisplay:10.37,2013-02-08 01:00:00,
2013-02-08 02:05:00,42.5,39.8,29.55,SSW,210,1.0,5.0,90,0.01,RA,,0.02,0.0,WeatherDisplay:10.37,2013-02-08 01:05:00,
2013-02-08 02:10:00,42.5,39.8,29.55,SSE,155,1.1,1.1,90,0.02,RA,,0.02,0.0,WeatherDisplay:10.37,2013-02-08 01:10:00,
2013-02-08 02:15:00,42.6,39.9,29.55,East,83,1.0,1.0,90,0.00,BKN,,0.02,0.0,WeatherDisplay:10.37,2013-02-08 01:15:00,
2013-02-08 02:20:00,42.6,39.9,29.55,North,9,1.1,1.1,90,0.02,BKN,,0.02,0.0,WeatherDisplay:10.37,2013-02-08 01:20:00,
2013-02-08 02:25:00,42.6,39.9,29.55,North,0,0.0,0.0,90,0.02,BKN,,0.02,0.0,WeatherDisplay:10.37,2013-02-08 01:25:00,
2013-02-08 02:30:00,42.6,39.9,29.55,North,0,0.0,0.0,90,0.02,SCT,,0.02,0.0,WeatherDisplay:10.37,2013-02-08 01:30:00,
2013-02-08 02:35:00,42.6,39.9,29.55,North,0,0.0,0.0,90,0.02,SCT,,0.02,0.0,WeatherDisplay:10.37,2013-02-08 01:35:00,
2013-02-08 02:40:00,42.6,39.9,29.55,North,0,0.0,0.0,90,0.02,SCT,,0.02,0.0,WeatherDisplay:10.37,2013-02-08 01:40:00,
2013-02-08 02:45:00,42.6,39.9,29.55,North,0,0.0,0.0,90,0.02,SCT,,0.02,0.0,WeatherDisplay:10.37,2013-02-08 01:45:00,
2013-02-08 02:50:00,42.6,39.9,29.55,North,0,0.0,0.0,90,0.01,SCT,,0.02,0.0,WeatherDisplay:10.37,2013-02-08 01:50:00,
2013-02-08 02:55:00,42.6,39.9,29.55,North,0,0.0,0.0,90,0.01,SCT,,0.02,0.0,WeatherDisplay:10.37,2013-02-08 01:55:00,
2013-02-08 03:00:00,42.6,39.9,29.55,North,0,0.0,0.0,90,0.01,SCT,,0.02,0.0,WeatherDisplay:10.37,2013-02-08 02:00:00,
2013-02-08 03:05:00,42.6,39.9,29.55,North,0,0.0,0.0,90,0.00,SCT,,0.02,0.0,WeatherDisplay:10.37,2013-02-08 02:05:00,
2013-02-08 03:10:00,42.6,39.9,29.54,North,0,0.0,0.0,90,0.00,SCT,,0.02,0.0,WeatherDisplay:10.37,2013-02-08 02:10:00,
2013-02-08 03:15:00,42.6,39.9,29.54,North,0,0.0,0.0,90,0.00,SCT,,0.02,0.0,WeatherDisplay:10.37,2013-02-08 02:15:00,
2013-02-08 03:20:00,42.6,39.9,29.54,North,0,0.0,0.0,90,0.00,SCT,,0.02,0.0,WeatherDisplay:10.37,2013-02-08 02:20:00,
2013-02-08 03:25:00,42.6,39.9,29.54,North,0,0.0,0.0,90,0.00,SCT,,0.02,0.0,WeatherDisplay:10.37,2013-02-08 02:25:00,
2013-02-08 03:30:00,42.6,39.9,29.54,North,0,0.0,0.0,90,0.00,-RA,,0.02,0.0,WeatherDisplay:10.37,2013-02-08 02:30:00,
2013-02-08 03:35:00,42.6,39.9,29.54,North,0,0.0,0.0,90,0.00,-RA,,0.02,0.0,WeatherDisplay:10.37,2013-02-08 02:35:00,
2013-02-08 03:40:00,42.6,39.9,29.54,North,0,0.0,0.0,90,0.00,-RA,,0.02,0.0,WeatherDisplay:10.37,2013-02-08 02:40:00,
2013-02-08 03:45:00,42.6,39.9,29.54,North,0,0.0,0.0,90,0.00,-RA,,0.02,0.0,WeatherDisplay:10.37,2013-02-08 02:45:00,
2013-02-08 03:50:00,42.6,39.9,29.54,North,0,0.0,0.0,90,0.00,-RA,,0.02,0.0,WeatherDisplay:10.37,2013-02-08 02:50:00,
2013-02-08 03:55:00,42.6,39.9,29.54,North,0,0.0,0.0,90,0.00,-RA,,0.02,0.0,WeatherDisplay:10.37,2013-02-08 02:55:00,
2013-02-08 04:00:00,42.6,39.9,29.54,North,0,0.0,0.0,90,0.00,-RA,,0.02,0.0,WeatherDisplay:10.37,2013-02-08 03:00:00,
2013-02-08 04:05:00,42.6,39.9,29.54,North,0,0.0,0.0,90,0.00,-RA,,0.02,0.0,WeatherDisplay:10.37,2013-02-08 03:05:00,
2013-02-08 04:10:00,42.6,39.9,29.54,North,0,0.0,0.0,90,0.00,-RA,,0.02,0.0,WeatherDisplay:10.37,2013-02-08 03:10:00,
2013-02-08 04:15:00,42.6,39.9,29.54,North,0,0.0,0.0,90,0.00,-RA,,0.02,0.0,WeatherDisplay:10.37,2013-02-08 03:15:00,
2013-02-08 04:20:00,42.6,39.9,29.54,North,0,0.0,0.0,90,0.00,SCT,,0.02,0.0,WeatherDisplay:10.37,2013-02-08 03:20:00,
2013-02-08 04:25:00,42.6,39.9,29.54,North,0,0.0,0.0,90,0.00,SCT,,0.02,0.0,WeatherDisplay:10.37,2013-02-08 03:25:00,
2013-02-08 04:30:00,42.6,39.9,29.54,North,0,0.0,0.0,90,0.00,SCT,,0.02,0.0,WeatherDisplay:10.37,2013-02-08 03:30:00,
2013-02-08 04:35:00,42.6,39.9,29.54,North,0,0.0,0.0,90,0.00,SCT,,0.02,0.0,WeatherDisplay:10.37,2013-02-08 03:35:00,
2013-02-08 04:40:00,42.6,39.9,29.54,North,0,0.0,0.0,90,0.00,SCT,,0.02,0.0,WeatherDisplay:10.37,2013-02-08 03:40:00,
2013-02-08 04:45:00,42.6,39.9,29.55,North,0,0.0,0.0,90,0.00,SCT,,0.02,0.0,WeatherDisplay:10.37,2013-02-08 03:45:00,
2013-02-08 04:50:00,42.6,39.9,29.55,North,0,0.0,0.0,90,0.00,SCT,,0.02,0.0,WeatherDisplay:10.37,2013-02-08 03:50:00,
2013-02-08 04:55:00,42.6,39.9,29.55,North,0,0.0,0.0,90,0.00,SCT,,0.02,0.0,WeatherDisplay:10.37,2013-02-08 03:55:00,
2013-02-08 05:00:00,42.6,39.9,29.55,North,0,0.0,0.0,90,0.00,SCT,,0.02,0.0,WeatherDisplay:10.37,2013-02-08 04:00:00,
2013-02-08 05:05:00,42.6,39.9,29.55,North,0,0.0,0.0,90,0.00,SCT,,0.02,0.0,WeatherDisplay:10.37,2013-02-08 04:05:00,
2013-02-08 05:10:00,42.6,39.9,29.55,North,0,0.0,0.0,90,0.00,SCT,,0.02,0.0,WeatherDisplay:10.37,2013-02-08 04:10:00,
2013-02-08 05:15:00,42.6,39.9,29.55,North,0,0.0,0.0,90,0.00,SCT,,0.02,0.0,WeatherDisplay:10.37,2013-02-08 04:15:00,
2013-02-08 05:20:00,42.6,39.9,29.55,North,0,0.0,0.0,90,0.00,SCT,,0.02,0.0,WeatherDisplay:10.37,2013-02-08 04:20:00,
2013-02-08 05:25:00,42.6,39.9,29.55,North,0,0.0,0.0,90,0.00,SCT,,0.02,0.0,WeatherDisplay:10.37,2013-02-08 04:25:00,
2013-02-08 05:30:00,42.6,39.9,29.55,North,0,0.0,0.0,90,0.00,SCT,,0.02,0.0,WeatherDisplay:10.37,2013-02-08 04:30:00,
2013-02-08 05:35:00,42.6,39.9,29.55,North,0,0.0,0.0,90,0.00,SCT,,0.02,0.0,WeatherDisplay:10.37,2013-02-08 04:35:00,
2013-02-08 05:40:00,42.6,39.9,29.55,North,0,0.0,0.0,90,0.00,SCT,,0.02,0.0,WeatherDisplay:10.37,2013-02-08 04:40:00,
2013-02-08 05:45:00,42.6,39.9,29.55,North,0,0.0,0.0,90,0.00,SCT,,0.02,0.0,WeatherDisplay:10.37,2013-02-08 04:45:00,
2013-02-08 05:50:00,41.8,35.8,29.55,ENE,73,9.2,9.2,79,0.00,SCT,,0.02,0.0,WeatherDisplay:10.37,2013-02-08 04:50:00,
2013-02-08 05:55:00,41.8,35.8,29.55,ESE,102,10.4,10.4,79,0.00,SCT,,0.02,0.0,WeatherDisplay:10.37,2013-02-08 04:55:00,
2013-02-08 06:00:00,42.0,35.6,29.55,ENE,68,11.5,11.5,78,0.00,SCT,,0.02,0.0,WeatherDisplay:10.37,2013-02-08 05:00:00,
2013-02-08 06:05:00,42.0,35.6,29.55,East,80,8.1,8.1,78,0.00,SCT,,0.02,0.0,WeatherDisplay:10.37,2013-02-08 05:05:00,
2013-02-08 06:10:00,42.1,35.4,29.55,ESE,107,11.5,11.5,77,0.00,SCT,,0.02,0.0,WeatherDisplay:10.37,2013-02-08 05:10:00,
2013-02-08 06:15:00,41.9,35.5,29.55,East,84,11.0,11.0,78,0.00,SCT,,0.02,0.0,WeatherDisplay:10.37,2013-02-08 05:15:00,
2013-02-08 06:20:00,42.1,35.4,29.55,East,88,15.0,15.0,77,0.00,SCT,,0.02,0.0,WeatherDisplay:10.37,2013-02-08 05:20:00,
2013-02-08 06:25:00,42.3,35.3,29.56,NE,50,11.5,11.5,76,0.00,SCT,,0.02,0.0,WeatherDisplay:10.37,2013-02-08 05:25:00,
2013-02-08 06:30:00,42.2,35.2,29.56,East,88,11.5,11.5,76,0.00,SCT,,0.02,0.0,WeatherDisplay:10.37,2013-02-08 05:30:00,
2013-02-08 06:35:00,42.1,35.1,29.56,East,98,10.4,10.4,76,0.00,SCT,,0.02,0.0,WeatherDisplay:10.37,2013-02-08 05:35:00,
2013-02-08 06:40:00,42.0,35.3,29.56,ENE,65,6.9,6.9,77,0.00,SCT,,0.02,0.0,WeatherDisplay:10.37,2013-02-08 05:40:00,
2013-02-08 06:47:00,41.8,35.4,29.57,ESE,103,8.0,8.0,78,0.00,RA,,0.02,0.0,WeatherDisplay:10.37,2013-02-08 05:47:00,
2013-02-08 06:52:00,41.9,35.5,29.57,SE,126,9.2,9.2,78,0.00,RA,,0.02,0.0,WeatherDisplay:10.37,2013-02-08 05:52:00,
2013-02-08 06:57:00,42.0,35.3,29.57,East,90,9.2,9.2,77,0.00,RA,,0.02,0.0,WeatherDisplay:10.37,2013-02-08 05:57:00,
2013-02-08 07:02:00,42.1,35.4,29.58,ENE,69,10.4,10.4,77,0.00,SCT,,0.02,0.0,WeatherDisplay:10.37,2013-02-08 06:02:00,
2013-02-08 07:07:00,42.2,35.2,29.58,ESE,113,11.5,11.5,76,0.00,SCT,,0.02,0.0,WeatherDisplay:10.37,2013-02-08 06:07:00,
2013-02-08 07:12:00,42.3,34.9,29.58,ESE,112,9.2,9.2,75,0.00,SCT,,0.02,0.0,WeatherDisplay:10.37,2013-02-08 06:12:00,
2013-02-08 07:17:00,42.4,35.0,29.58,ESE,110,9.2,9.2,75,0.00,SCT,,0.02,0.0,WeatherDisplay:10.37,2013-02-08 06:17:00,
2013-02-08 07:22:00,42.6,35.2,29.58,SSE,165,8.0,8.0,75,0.00,SCT,,0.02,5.0,WeatherDisplay:10.37,2013-02-08 06:22:00,
2013-02-08 07:27:00,42.6,35.2,29.58,East,101,11.0,11.0,75,0.00,SCT,,0.02,5.0,WeatherDisplay:10.37,2013-02-08 06:27:00,
2013-02-08 07:32:00,42.7,35.0,29.59,ESE,106,11.5,11.5,74,0.00,SCT,,0.02,7.0,WeatherDisplay:10.37,2013-02-08 06:32:00,
2013-02-08 07:37:00,42.8,34.7,29.59,SSE,160,15.0,15.0,73,0.00,SCT,,0.02,9.0,WeatherDisplay:10.37,2013-02-08 06:37:00,
2013-02-08 07:42:00,42.9,34.5,29.59,ESE,121,12.7,12.7,72,0.00,SCT,,0.02,11.0,WeatherDisplay:10.37,2013-02-08 06:42:00,
2013-02-08 07:47:00,42.8,34.4,29.59,ESE,102,11.5,11.5,72,0.00,SCT,,0.02,12.0,WeatherDisplay:10.37,2013-02-08 06:47:00,
2013-02-08 07:53:00,42.7,34.6,29.60,ESE,110,16.1,16.1,73,0.00,SCT,,0.02,14.0,WeatherDisplay:10.37,2013-02-08 06:53:00,
2013-02-08 07:58:00,42.6,34.5,29.60,ESE,109,12.7,12.7,73,0.00,SCT,,0.02,19.0,WeatherDisplay:10.37,2013-02-08 06:58:00,
2013-02-08 08:03:00,42.6,34.5,29.60,ESE,107,18.4,18.4,73,0.00,BKN,,0.02,28.0,WeatherDisplay:10.37,2013-02-08 07:03:00,
2013-02-08 08:08:00,42.6,34.2,29.60,East,84,11.5,11.5,72,0.00,BKN,,0.02,39.0,WeatherDisplay:10.37,2013-02-08 07:08:00,
2013-02-08 08:13:00,42.3,34.6,29.60,East,101,9.2,9.2,74,0.00,BKN,,0.02,47.0,WeatherDisplay:10.37,2013-02-08 07:13:00,
2013-02-08 08:18:00,42.1,34.7,29.60,ESE,115,12.7,12.7,75,0.00,BKN,,0.02,53.0,WeatherDisplay:10.37,2013-02-08 07:18:00,
2013-02-08 08:23:00,42.0,34.6,29.60,SE,130,11.5,11.5,75,0.00,BKN,,0.02,72.0,WeatherDisplay:10.37,2013-02-08 07:23:00,
2013-02-08 08:28:00,41.9,34.9,29.60,East,101,13.0,13.0,76,0.00,BKN,,0.02,97.0,WeatherDisplay:10.37,2013-02-08 07:28:00,
2013-02-08 08:33:00,41.9,34.9,29.60,SE,135,16.1,16.1,76,0.00,-RA,,0.02,97.0,WeatherDisplay:10.37,2013-02-08 07:33:00,
2013-02-08 08:38:00,41.8,34.8,29.60,SSE,162,11.5,11.5,76,0.00,-RA,,0.02,102.0,WeatherDisplay:10.37,2013-02-08 07:38:00,
2013-02-08 08:43:00,41.8,34.8,29.61,ESE,107,11.5,11.5,76,0.00,-RA,,0.02,98.0,WeatherDisplay:10.37,2013-02-08 07:43:00,
2013-02-08 08:48:00,42.0,35.3,29.61,East,81,11.0,11.0,77,0.00,-RA,,0.02,100.0,WeatherDisplay:10.37,2013-02-08 07:48:00,
2013-02-08 08:53:00,42.0,35.3,29.61,SE,126,8.1,8.1,77,0.00,-RA,,0.02,114.0,WeatherDisplay:10.37,2013-02-08 07:53:00,
2013-02-08 08:58:00,42.1,35.7,29.61,SE,130,5.0,5.0,78,0.00,-RA,,0.02,139.0,WeatherDisplay:10.37,2013-02-08 07:58:00,
2013-02-08 09:03:00,42.0,35.3,29.61,SE,129,13.8,13.8,77,0.00,-RA,,0.02,130.0,WeatherDisplay:10.37,2013-02-08 08:03:00,
2013-02-08 09:08:00,42.0,35.3,29.62,NE,49,10.4,10.4,77,0.00,-RA,,0.02,114.0,WeatherDisplay:10.37,2013-02-08 08:08:00,
2013-02-08 09:13:00,42.1,35.4,29.62,ENE,64,8.1,8.1,77,0.00,-RA,,0.02,120.0,WeatherDisplay:10.37,2013-02-08 08:13:00,
2013-02-08 09:18:00,42.1,35.4,29.62,ENE,67,11.5,11.5,77,0.00,-RA,,0.02,135.0,WeatherDisplay:10.37,2013-02-08 08:18:00,
2013-02-08 09:23:00,42.1,35.4,29.62,SE,145,11.5,11.5,77,0.00,-RA,,0.02,130.0,WeatherDisplay:10.37,2013-02-08 08:23:00,
2013-02-08 09:28:00,42.1,35.1,29.62,East,88,16.1,16.1,76,0.00,-RA,,0.02,142.0,WeatherDisplay:10.37,2013-02-08 08:28:00,
2013-02-08 09:33:00,42.0,35.0,29.62,East,91,15.0,15.0,76,0.00,BKN,,0.02,153.0,WeatherDisplay:10.37,2013-02-08 08:33:00,
2013-02-08 09:38:00,42.2,35.2,29.62,ENE,74,11.5,11.5,76,0.00,BKN,,0.02,156.0,WeatherDisplay:10.37,2013-02-08 08:38:00,
2013-02-08 09:43:00,42.2,34.8,29.62,NNW,333,10.4,10.4,75,0.00,BKN,,0.02,171.0,WeatherDisplay:10.37,2013-02-08 08:43:00,
2013-02-08 09:48:00,42.3,35.3,29.62,East,80,10.4,10.4,76,0.00,BKN,,0.02,183.0,WeatherDisplay:10.37,2013-02-08 08:48:00,
2013-02-08 09:53:00,42.6,35.2,29.62,ESE,112,11.5,11.5,75,0.00,BKN,,0.02,250.0,WeatherDisplay:10.37,2013-02-08 08:53:00,
2013-02-08 09:58:00,42.7,35.0,29.62,ESE,109,13.8,13.8,74,0.00,BKN,,0.02,248.0,WeatherDisplay:10.37,2013-02-08 08:58:00,
2013-02-08 10:03:00,42.8,35.1,29.62,East,85,11.5,11.5,74,0.00,BKN,,0.02,264.0,WeatherDisplay:10.37,2013-02-08 09:03:00,
2013-02-08 10:08:00,43.0,34.9,29.62,SSE,147,13.8,13.8,73,0.00,BKN,,0.02,260.0,WeatherDisplay:10.37,2013-02-08 09:08:00,
2013-02-08 10:13:00,43.2,35.1,29.62,ESE,105,11.5,11.5,73,0.00,BKN,,0.02,262.0,WeatherDisplay:10.37,2013-02-08 09:13:00,
2013-02-08 10:18:00,43.3,34.9,29.62,ESE,106,14.0,14.0,72,0.00,BKN,,0.02,237.0,WeatherDisplay:10.37,2013-02-08 09:18:00,
2013-02-08 10:23:00,43.5,35.1,29.63,East,92,10.4,10.4,72,0.00,BKN,,0.02,294.0,WeatherDisplay:10.37,2013-02-08 09:23:00,
2013-02-08 10:28:00,43.6,35.2,29.63,ESE,118,10.4,10.4,72,0.00,BKN,,0.02,223.0,WeatherDisplay:10.37,2013-02-08 09:28:00,
2013-02-08 10:33:00,43.8,35.0,29.63,ESE,105,12.7,12.7,71,0.00,BKN,,0.02,220.0,WeatherDisplay:10.37,2013-02-08 09:33:00,
2013-02-08 10:38:00,43.7,34.6,29.63,ESE,105,13.8,13.8,70,0.00,BKN,,0.02,174.0,WeatherDisplay:10.37,2013-02-08 09:38:00,
2013-02-08 10:43:00,43.8,34.6,29.63,ESE,105,12.7,12.7,70,0.00,BKN,,0.02,141.0,WeatherDisplay:10.37,2013-02-08 09:43:00,
2013-02-08 10:48:00,43.8,34.6,29.63,East,98,13.8,13.8,70,0.00,BKN,,0.02,146.0,WeatherDisplay:10.37,2013-02-08 09:48:00,
2013-02-08 10:53:00,43.9,34.7,29.63,ESE,102,13.0,13.0,70,0.00,BKN,,0.02,167.0,WeatherDisplay:10.37,2013-02-08 09:53:00,
2013-02-08 10:58:00,44.0,34.8,29.63,ESE,105,15.0,15.0,70,0.00,BKN,,0.02,188.0,WeatherDisplay:10.37,2013-02-08 09:58:00,
2013-02-08 11:03:00,44.1,34.6,29.63,East,93,15.0,15.0,69,0.00,BKN,,0.02,193.0,WeatherDisplay:10.37,2013-02-08 10:03:00,
2013-02-08 11:08:00,44.2,34.7,29.63,ESE,121,15.0,15.0,69,0.00,BKN,,0.02,206.0,WeatherDisplay:10.37,2013-02-08 10:08:00,
2013-02-08 11:13:00,44.4,34.9,29.63,ENE,76,11.5,11.5,69,0.00,BKN,,0.02,229.0,WeatherDisplay:10.37,2013-02-08 10:13:00,
2013-02-08 11:18:00,44.7,35.1,29.63,ESE,123,11.5,11.5,69,0.00,BKN,,0.02,272.0,WeatherDisplay:10.37,2013-02-08 10:18:00,
2013-02-08 11:23:00,44.8,34.9,29.63,ESE,104,15.0,15.0,68,0.00,BKN,,0.02,265.0,WeatherDisplay:10.37,2013-02-08 10:23:00,
2013-02-08 11:28:00,44.8,34.9,29.63,ESE,107,10.4,10.4,68,0.00,BKN,,0.02,290.0,WeatherDisplay:10.37,2013-02-08 10:28:00,
2013-02-08 11:33:00,45.0,35.1,29.63,East,93,13.8,13.8,68,0.00,BKN,,0.02,290.0,WeatherDisplay:10.37,2013-02-08 10:33:00,
2013-02-08 11:38:00,45.0,35.1,29.63,East,82,13.8,13.8,68,0.00,BKN,,0.02,239.0,WeatherDisplay:10.37,2013-02-08 10:38:00,
2013-02-08 11:43:00,45.0,34.7,29.63,ESE,114,12.7,12.7,67,0.00,BKN,,0.02,227.0,WeatherDisplay:10.37,2013-02-08 10:43:00,
2013-02-08 11:48:00,44.9,34.6,29.63,East,79,12.7,12.7,67,0.00,BKN,,0.02,213.0,WeatherDisplay:10.37,2013-02-08 10:48:00,
2013-02-08 11:53:00,44.9,35.0,29.63,ESE,117,16.1,16.1,68,0.00,BKN,,0.02,204.0,WeatherDisplay:10.37,2013-02-08 10:53:00,
2013-02-08 11:58:00,44.8,34.5,29.63,ESE,113,15.0,15.0,67,0.00,BKN,,0.02,195.0,WeatherDisplay:10.37,2013-02-08 10:58:00,
2013-02-08 12:03:00,44.9,35.0,29.63,ESE,116,13.8,13.8,68,0.00,BKN,,0.02,193.0,WeatherDisplay:10.37,2013-02-08 11:03:00,
2013-02-08 12:08:00,45.1,35.2,29.63,East,94,10.0,10.0,68,0.00,BKN,,0.02,202.0,WeatherDisplay:10.37,2013-02-08 11:08:00,
2013-02-08 12:13:00,45.0,34.7,29.63,East,89,17.3,17.3,67,0.00,BKN,,0.02,216.0,WeatherDisplay:10.37,2013-02-08 11:13:00,
2013-02-08 12:18:00,44.9,34.6,29.63,East,88,16.1,16.1,67,0.00,BKN,,0.02,243.0,WeatherDisplay:10.37,2013-02-08 11:18:00,
2013-02-08 12:23:00,45.0,34.7,29.63,ESE,120,12.7,12.7,67,0.00,SCT,,0.02,262.0,WeatherDisplay:10.37,2013-02-08 11:23:00,
2013-02-08 12:28:00,44.9,34.6,29.63,ESE,114,16.1,16.1,67,0.00,SCT,,0.02,272.0,WeatherDisplay:10.37,2013-02-08 11:28:00,
2013-02-08 12:33:00,45.0,34.7,29.63,ESE,115,13.8,13.8,67,0.00,SCT,,0.02,290.0,WeatherDisplay:10.37,2013-02-08 11:33:00,
2013-02-08 12:38:00,45.2,34.5,29.63,ESE,108,10.4,10.4,66,0.00,SCT,,0.02,353.0,WeatherDisplay:10.37,2013-02-08 11:38:00,
2013-02-08 12:43:00,45.2,34.5,29.64,NNE,29,11.5,11.5,66,0.00,FEW,,0.02,306.0,WeatherDisplay:10.37,2013-02-08 11:43:00,
2013-02-08 12:48:00,45.5,34.8,29.64,ESE,102,11.5,11.5,66,0.00,FEW,,0.02,392.0,WeatherDisplay:10.37,2013-02-08 11:48:00,
2013-02-08 12:53:00,45.8,34.7,29.63,ESE,117,15.0,15.0,65,0.00,FEW,,0.02,621.0,WeatherDisplay:10.37,2013-02-08 11:53:00,
2013-02-08 12:58:00,46.3,35.2,29.63,NE,34,12.7,12.7,65,0.00,FEW,,0.02,587.0,WeatherDisplay:10.37,2013-02-08 11:58:00,
2013-02-08 13:03:00,46.8,35.3,29.64,ESE,113,12.7,12.7,64,0.00,FEW,,0.02,647.0,WeatherDisplay:10.37,2013-02-08 12:03:00,
2013-02-08 13:08:00,46.7,34.4,29.64,SE,133,11.5,11.5,62,0.00,FEW,,0.02,652.0,WeatherDisplay:10.37,2013-02-08 12:08:00,
2013-02-08 13:13:00,47.0,34.6,29.64,East,101,9.2,9.2,62,0.00,FEW,,0.02,610.0,WeatherDisplay:10.37,2013-02-08 12:13:00,
2013-02-08 13:18:00,46.9,34.6,29.64,ESE,111,17.3,17.3,62,0.00,FEW,,0.02,582.0,WeatherDisplay:10.37,2013-02-08 12:18:00,
2013-02-08 13:23:00,47.5,35.1,29.63,ESE,110,14.0,14.0,62,0.00,FEW,,0.02,594.0,WeatherDisplay:10.37,2013-02-08 12:23:00,
2013-02-08 13:28:00,47.2,34.8,29.63,SE,134,12.7,12.7,62,0.00,FEW,,0.02,624.0,WeatherDisplay:10.37,2013-02-08 12:28:00,
2013-02-08 13:33:00,47.7,34.9,29.63,NE,49,11.5,11.5,61,0.00,FEW,,0.02,237.0,WeatherDisplay:10.37,2013-02-08 12:33:00,
2013-02-08 13:38:00,47.9,34.3,29.63,SSE,147,11.5,11.5,59,0.00,FEW,,0.02,613.0,WeatherDisplay:10.37,2013-02-08 12:38:00,
2013-02-08 13:43:00,48.0,34.3,29.63,SE,124,9.2,9.2,59,0.00,BKN,,0.02,596.0,WeatherDisplay:10.37,2013-02-08 12:43:00,
2013-02-08 13:48:00,48.3,34.6,29.63,SE,124,5.0,5.0,59,0.00,BKN,,0.02,571.0,WeatherDisplay:10.37,2013-02-08 12:48:00,
2013-02-08 13:53:00,48.2,33.7,29.63,SE,132,11.5,11.5,57,0.00,BKN,,0.02,596.0,WeatherDisplay:10.37,2013-02-08 12:53:00,
2013-02-08 13:58:00,48.0,34.3,29.63,East,80,4.6,4.6,59,0.00,BKN,,0.02,469.0,WeatherDisplay:10.37,2013-02-08 12:58:00,
2013-02-08 14:04:00,48.0,34.3,29.63,North,5,11.5,11.5,59,0.00,BKN,,0.02,241.0,WeatherDisplay:10.37,2013-02-08 13:04:00,
2013-02-08 14:09:00,47.9,34.3,29.63,South,171,12.7,12.7,59,0.00,BKN,,0.02,213.0,WeatherDisplay:10.37,2013-02-08 13:09:00,
2013-02-08 14:14:00,47.4,33.4,29.64,ESE,122,10.4,10.4,58,0.00,BKN,,0.02,204.0,WeatherDisplay:10.37,2013-02-08 13:14:00,
2013-02-08 14:19:00,47.6,34.0,29.64,East,95,8.1,8.1,59,0.00,BKN,,0.02,218.0,WeatherDisplay:10.37,2013-02-08 13:19:00,
2013-02-08 14:23:00,47.4,32.9,29.63,SE,130,13.8,13.8,57,0.00,BKN,,0.02,279.0,WeatherDisplay:10.37,2013-02-08 13:23:00,
2013-02-08 14:29:00,47.4,33.8,29.63,SE,135,13.8,13.8,59,0.00,BKN,,0.02,236.0,WeatherDisplay:10.37,2013-02-08 13:29:00,
2013-02-08 14:34:00,47.1,33.5,29.63,East,90,12.7,12.7,59,0.00,BKN,,0.02,200.0,WeatherDisplay:10.37,2013-02-08 13:34:00,
2013-02-08 14:39:00,46.9,33.3,29.63,East,98,11.5,11.5,59,0.00,BKN,,0.02,199.0,WeatherDisplay:10.37,2013-02-08 13:39:00,
2013-02-08 14:44:00,46.9,33.7,29.63,ESE,118,11.5,11.5,60,0.00,BKN,,0.02,186.0,WeatherDisplay:10.37,2013-02-08 13:44:00,
2013-02-08 14:49:00,47.0,33.4,29.64,ENE,61,8.1,8.1,59,0.00,BKN,,0.02,213.0,WeatherDisplay:10.37,2013-02-08 13:49:00,
2013-02-08 14:54:00,46.9,33.7,29.64,ESE,104,12.7,12.7,60,0.00,BKN,,0.02,253.0,WeatherDisplay:10.37,2013-02-08 13:54:00,
2013-02-08 14:59:00,47.0,33.8,29.63,East,92,11.5,11.5,60,0.00,BKN,,0.02,244.0,WeatherDisplay:10.37,2013-02-08 13:59:00,
2013-02-08 15:04:00,46.9,33.3,29.64,ESE,103,11.5,11.5,59,0.00,BKN,,0.02,230.0,WeatherDisplay:10.37,2013-02-08 14:04:00,
2013-02-08 15:09:00,47.0,33.8,29.64,East,81,10.0,10.0,60,0.00,BKN,,0.02,223.0,WeatherDisplay:10.37,2013-02-08 14:09:00,
2013-02-08 15:14:00,47.2,34.0,29.64,ENE,59,8.1,8.1,60,0.00,BKN,,0.02,306.0,WeatherDisplay:10.37,2013-02-08 14:14:00,
2013-02-08 15:19:00,47.0,33.8,29.64,East,96,14.0,14.0,60,0.00,BKN,,0.02,320.0,WeatherDisplay:10.37,2013-02-08 14:19:00,
2013-02-08 15:24:00,47.2,34.0,29.64,NE,53,13.0,13.0,60,0.00,BKN,,0.02,279.0,WeatherDisplay:10.37,2013-02-08 14:24:00,
2013-02-08 15:29:00,47.4,33.4,29.64,East,92,16.1,16.1,58,0.00,BKN,,0.02,378.0,WeatherDisplay:10.37,2013-02-08 14:29:00,
2013-02-08 15:34:00,47.3,33.7,29.64,East,89,12.7,12.7,59,0.00,BKN,,0.02,330.0,WeatherDisplay:10.37,2013-02-08 14:34:00,
2013-02-08 15:39:00,47.3,33.3,29.64,East,86,15.0,15.0,58,0.00,BKN,,0.02,297.0,WeatherDisplay:10.37,2013-02-08 14:39:00,
2013-02-08 15:44:00,47.1,33.5,29.64,ESE,107,12.7,12.7,59,0.00,BKN,,0.02,265.0,WeatherDisplay:10.37,2013-02-08 14:44:00,
2013-02-08 15:49:00,47.2,33.6,29.64,ESE,103,15.0,15.0,59,0.00,BKN,,0.02,237.0,WeatherDisplay:10.37,2013-02-08 14:49:00,
2013-02-08 15:54:00,47.1,33.5,29.64,ESE,114,9.2,9.2,59,0.00,SCT,,0.02,223.0,WeatherDisplay:10.37,2013-02-08 14:54:00,
2013-02-08 15:59:00,47.1,33.5,29.64,SE,127,15.0,15.0,59,0.00,SCT,,0.02,206.0,WeatherDisplay:10.37,2013-02-08 14:59:00,
2013-02-08 16:04:00,47.0,33.0,29.64,ESE,105,15.0,15.0,58,0.00,FEW,,0.02,192.0,WeatherDisplay:10.37,2013-02-08 15:04:00,
2013-02-08 16:09:00,46.5,32.5,29.64,ESE,108,21.9,21.9,58,0.00,FEW,,0.02,178.0,WeatherDisplay:10.37,2013-02-08 15:09:00,
2013-02-08 16:14:00,46.4,32.8,29.64,East,82,10.4,10.4,59,0.00,FEW,,0.02,163.0,WeatherDisplay:10.37,2013-02-08 15:14:00,
2013-02-08 16:19:00,46.3,32.7,29.65,ESE,108,10.4,10.4,59,0.00,FEW,,0.02,46.0,WeatherDisplay:10.37,2013-02-08 15:19:00,
2013-02-08 16:24:00,46.1,32.6,29.65,SE,129,16.1,16.1,59,0.00,FEW,,0.02,142.0,WeatherDisplay:10.37,2013-02-08 15:24:00,
2013-02-08 16:29:00,45.9,32.4,29.65,ESE,113,16.0,16.0,59,0.00,FEW,,0.02,49.0,WeatherDisplay:10.37,2013-02-08 15:29:00,
2013-02-08 16:34:00,45.7,32.6,29.65,SE,127,18.4,18.4,60,0.00,FEW,,0.02,116.0,WeatherDisplay:10.37,2013-02-08 15:34:00,
2013-02-08 16:39:00,45.6,32.5,29.65,SE,129,12.7,12.7,60,0.00,FEW,,0.02,105.0,WeatherDisplay:10.37,2013-02-08 15:39:00,
2013-02-08 16:44:00,45.7,32.6,29.66,East,100,13.8,13.8,60,0.00,SCT,,0.02,98.0,WeatherDisplay:10.37,2013-02-08 15:44:00,
2013-02-08 16:49:00,45.7,32.6,29.66,ESE,113,9.2,9.2,60,0.00,SCT,,0.02,84.0,WeatherDisplay:10.37,2013-02-08 15:49:00,
2013-02-08 16:54:00,45.7,33.0,29.66,SSW,196,9.2,9.2,61,0.00,SCT,,0.02,72.0,WeatherDisplay:10.37,2013-02-08 15:54:00,
2013-02-08 16:59:00,45.4,33.1,29.66,ESE,112,9.2,9.2,62,0.00,SCT,,0.02,46.0,WeatherDisplay:10.37,2013-02-08 15:59:00,
2013-02-08 17:04:00,45.3,32.6,29.66,ESE,107,8.1,8.1,61,0.00,SCT,,0.02,39.0,WeatherDisplay:10.37,2013-02-08 16:04:00,
2013-02-08 17:09:00,45.0,32.8,29.67,ESE,107,13.8,13.8,62,0.00,SCT,,0.02,30.0,WeatherDisplay:10.37,2013-02-08 16:09:00,
2013-02-08 17:14:00,44.7,32.5,29.67,East,89,11.5,11.5,62,0.00,SCT,,0.02,12.0,WeatherDisplay:10.37,2013-02-08 16:14:00,
2013-02-08 17:19:00,44.7,32.5,29.67,East,92,12.7,12.7,62,0.00,SCT,,0.02,7.0,WeatherDisplay:10.37,2013-02-08 16:19:00,
2013-02-08 17:24:00,44.5,32.7,29.67,East,98,8.1,8.1,63,0.00,SCT,,0.02,5.0,WeatherDisplay:10.37,2013-02-08 16:24:00,
2013-02-08 17:29:00,44.2,32.8,29.67,East,98,10.4,10.4,64,0.00,SCT,,0.02,0.0,WeatherDisplay:10.37,2013-02-08 16:29:00,
2013-02-08 17:34:00,44.1,33.1,29.67,SSE,166,6.9,6.9,65,0.00,SCT,,0.02,0.0,WeatherDisplay:10.37,2013-02-08 16:34:00,
2013-02-08 17:39:00,43.8,32.8,29.67,ESE,115,10.4,10.4,65,0.00,SCT,,0.02,0.0,WeatherDisplay:10.37,2013-02-08 16:39:00,
2013-02-08 17:44:00,43.6,33.0,29.67,ENE,57,9.2,9.2,66,0.00,SCT,,0.02,0.0,WeatherDisplay:10.37,2013-02-08 16:44:00,
2013-02-08 17:49:00,43.5,33.3,29.68,WSW,244,9.2,9.2,67,0.00,SCT,,0.02,0.0,WeatherDisplay:10.37,2013-02-08 16:49:00,
2013-02-08 17:54:00,43.4,33.2,29.68,SSE,157,9.2,9.2,67,0.00,BKN,,0.02,0.0,WeatherDisplay:10.37,2013-02-08 16:54:00,
2013-02-08 17:59:00,43.2,33.0,29.68,ESE,107,6.9,6.9,67,0.00,BKN,,0.02,0.0,WeatherDisplay:10.37,2013-02-08 16:59:00,
2013-02-08 18:04:00,43.1,33.3,29.68,SW,224,6.9,6.9,68,0.00,BKN,,0.02,0.0,WeatherDisplay:10.37,2013-02-08 17:04:00,
2013-02-08 18:09:00,43.1,33.3,29.69,SE,136,8.1,8.1,68,0.00,BKN,,0.02,0.0,WeatherDisplay:10.37,2013-02-08 17:09:00,
2013-02-08 18:28:00,42.6,32.8,29.69,SSW,202,3.5,3.5,68,0.00,BKN,,0.02,0.0,WeatherDisplay:10.37,2013-02-08 17:28:00,
2013-02-08 18:33:00,42.9,33.4,29.69,South,178,5.0,5.0,69,0.00,BKN,,0.02,0.0,WeatherDisplay:10.37,2013-02-08 17:33:00,
2013-02-08 18:41:00,42.8,33.0,29.69,West,281,5.0,5.0,68,0.00,BKN,,0.02,0.0,WeatherDisplay:10.37,2013-02-08 17:41:00,
2013-02-08 18:46:00,42.6,32.8,29.68,SW,231,4.6,4.6,68,0.00,BKN,,0.02,0.0,WeatherDisplay:10.37,2013-02-08 17:46:00,
2013-02-08 18:52:00,42.4,32.6,29.68,NE,42,4.6,4.6,68,0.00,BKN,,0.02,0.0,WeatherDisplay:10.37,2013-02-08 17:52:00,
2013-02-08 18:56:00,42.3,32.5,29.69,SW,226,8.1,8.1,68,0.00,BKN,,0.02,0.0,WeatherDisplay:10.37,2013-02-08 17:56:00,
2013-02-08 19:02:00,42.2,32.8,29.69,SE,128,4.6,4.6,69,0.00,BKN,,0.02,0.0,WeatherDisplay:10.37,2013-02-08 18:02:00,
2013-02-08 19:07:00,42.2,32.8,29.69,East,96,11.0,11.0,69,0.00,BKN,,0.02,0.0,WeatherDisplay:10.37,2013-02-08 18:07:00,
2013-02-08 19:12:00,42.1,32.7,29.69,ESE,108,10.4,10.4,69,0.00,BKN,,0.02,0.0,WeatherDisplay:10.37,2013-02-08 18:12:00,
2013-02-08 19:17:00,42.2,32.4,29.70,ESE,115,12.7,12.7,68,0.00,BKN,,0.02,0.0,WeatherDisplay:10.37,2013-02-08 18:17:00,
2013-02-08 19:25:00,42.3,32.5,29.70,ESE,112,7.0,14.0,68,0.00,BKN,,0.02,0.0,WeatherDisplay:10.37,2013-02-08 18:25:00,
2013-02-08 19:30:00,42.3,32.5,29.70,SE,134,8.1,8.1,68,0.00,BKN,,0.02,0.0,WeatherDisplay:10.37,2013-02-08 18:30:00,
2013-02-08 19:35:00,42.3,32.5,29.70,SE,126,9.2,9.2,68,0.00,BKN,,0.02,0.0,WeatherDisplay:10.37,2013-02-08 18:35:00,
2013-02-08 19:41:00,42.3,32.5,29.70,ESE,103,7.0,7.0,68,0.00,BKN,,0.02,0.0,WeatherDisplay:10.37,2013-02-08 18:41:00,
2013-02-08 19:46:00,42.3,32.5,29.71,NE,55,9.2,9.2,68,0.00,BKN,,0.02,0.0,WeatherDisplay:10.37,2013-02-08 18:46:00,
2013-02-08 19:51:00,42.3,32.5,29.71,East,88,9.2,9.2,68,0.00,BKN,,0.02,0.0,WeatherDisplay:10.37,2013-02-08 18:51:00,
2013-02-08 19:56:00,42.4,32.6,29.71,ESE,112,12.7,12.7,68,0.00,BKN,,0.02,0.0,WeatherDisplay:10.37,2013-02-08 18:56:00,
2013-02-08 20:02:00,42.5,32.7,29.71,ESE,123,6.9,6.9,68,0.00,BKN,,0.02,0.0,WeatherDisplay:10.37,2013-02-08 19:02:00,
2013-02-08 20:07:00,42.5,32.7,29.71,SW,222,13.8,13.8,68,0.00,BKN,,0.02,0.0,WeatherDisplay:10.37,2013-02-08 19:07:00,
2013-02-08 20:12:00,42.5,32.7,29.71,East,98,14.0,14.0,68,0.00,BKN,,0.02,0.0,WeatherDisplay:10.37,2013-02-08 19:12:00,
2013-02-08 20:17:00,42.5,32.3,29.71,ESE,117,16.1,16.1,67,0.00,BKN,,0.02,0.0,WeatherDisplay:10.37,2013-02-08 19:17:00,
2013-02-08 20:22:00,42.5,32.7,29.71,ENE,62,10.4,10.4,68,0.00,BKN,,0.02,0.0,WeatherDisplay:10.37,2013-02-08 19:22:00,
2013-02-08 20:27:00,42.4,32.6,29.71,East,92,11.5,11.5,68,0.00,BKN,,0.02,0.0,WeatherDisplay:10.37,2013-02-08 19:27:00,
2013-02-08 20:32:00,42.3,32.5,29.71,East,92,9.0,9.0,68,0.00,BKN,,0.02,0.0,WeatherDisplay:10.37,2013-02-08 19:32:00,
2013-02-08 20:38:00,42.3,32.8,29.71,SSE,163,5.8,5.8,69,0.00,BKN,,0.02,0.0,WeatherDisplay:10.37,2013-02-08 19:38:00,
2013-02-08 20:43:00,42.3,32.5,29.71,SW,234,7.0,7.0,68,0.00,BKN,,0.02,0.0,WeatherDisplay:10.37,2013-02-08 19:43:00,
2013-02-08 20:48:00,42.3,32.8,29.72,NW,320,5.0,5.0,69,0.00,BKN,,0.02,0.0,WeatherDisplay:10.37,2013-02-08 19:48:00,
2013-02-08 20:53:00,42.3,32.8,29.72,NW,308,5.0,5.0,69,0.00,BKN,,0.02,0.0,WeatherDisplay:10.37,2013-02-08 19:53:00,
2013-02-08 20:59:00,42.3,32.8,29.72,West,260,3.5,3.5,69,0.00,BKN,,0.02,0.0,WeatherDisplay:10.37,2013-02-08 19:59:00,
2013-02-08 21:04:00,42.3,32.5,29.73,South,187,4.6,4.6,68,0.00,BKN,,0.02,0.0,WeatherDisplay:10.37,2013-02-08 20:04:00,
2013-02-08 21:09:00,42.3,32.5,29.73,NNE,26,4.6,4.6,68,0.00,BKN,,0.02,0.0,WeatherDisplay:10.37,2013-02-08 20:09:00,
2013-02-08 21:14:00,42.3,32.1,29.74,NNE,16,6.0,6.0,67,0.00,BKN,,0.02,0.0,WeatherDisplay:10.37,2013-02-08 20:14:00,
2013-02-08 21:19:00,42.3,32.1,29.74,North,351,5.8,5.8,67,0.00,BKN,,0.02,0.0,WeatherDisplay:10.37,2013-02-08 20:19:00,
2013-02-08 21:24:00,42.4,32.2,29.74,North,5,4.6,4.6,67,0.00,BKN,,0.02,0.0,WeatherDisplay:10.37,2013-02-08 20:24:00,
2013-02-08 21:29:00,42.7,32.1,29.74,SSW,203,3.5,3.5,66,0.00,BKN,,0.02,0.0,WeatherDisplay:10.37,2013-02-08 20:29:00,
2013-02-08 21:34:00,42.9,31.9,29.75,ESE,110,0.0,0.0,65,0.00,BKN,,0.02,0.0,WeatherDisplay:10.37,2013-02-08 20:34:00,
2013-02-08 21:39:00,43.0,32.0,29.75,SSE,163,4.6,4.6,65,0.00,BKN,,0.02,0.0,WeatherDisplay:10.37,2013-02-08 20:39:00,
2013-02-08 21:44:00,43.3,31.9,29.75,WSW,248,8.1,8.1,64,0.00,BKN,,0.02,0.0,WeatherDisplay:10.37,2013-02-08 20:44:00,
2013-02-08 21:49:00,43.4,32.0,29.75,West,263,14.0,14.0,64,0.00,BKN,,0.02,0.0,WeatherDisplay:10.37,2013-02-08 20:49:00,
2013-02-08 21:54:00,43.3,32.3,29.75,SW,234,8.1,8.1,65,0.00,BKN,,0.02,0.0,WeatherDisplay:10.37,2013-02-08 20:54:00,
2013-02-08 21:59:00,43.1,32.5,29.75,South,189,9.2,9.2,66,0.00,BKN,,0.02,0.0,WeatherDisplay:10.37,2013-02-08 20:59:00,
2013-02-08 22:04:00,43.0,32.8,29.75,South,184,4.6,4.6,67,0.00,BKN,,0.02,0.0,WeatherDisplay:10.37,2013-02-08 21:04:00,
2013-02-08 22:09:00,42.9,33.1,29.75,SSE,162,5.8,5.8,68,0.00,BKN,,0.02,0.0,WeatherDisplay:10.37,2013-02-08 21:09:00,
2013-02-08 22:14:00,42.8,33.0,29.74,SE,126,9.2,9.2,68,0.00,BKN,,0.02,0.0,WeatherDisplay:10.37,2013-02-08 21:14:00,
2013-02-08 22:19:00,42.8,33.0,29.74,SE,132,11.5,11.5,68,0.00,BKN,,0.02,0.0,WeatherDisplay:10.37,2013-02-08 21:19:00,
2013-02-08 22:24:00,42.7,32.5,29.74,East,94,10.4,10.4,67,0.00,BKN,,0.02,0.0,WeatherDisplay:10.37,2013-02-08 21:24:00,
2013-02-08 22:29:00,42.5,32.3,29.74,ESE,120,4.6,4.6,67,0.00,BKN,,0.02,0.0,WeatherDisplay:10.37,2013-02-08 21:29:00,
2013-02-08 22:34:00,42.5,32.3,29.74,ESE,105,5.8,5.8,67,0.00,BKN,,0.02,0.0,WeatherDisplay:10.37,2013-02-08 21:34:00,
2013-02-08 22:39:00,42.4,31.8,29.74,ESE,110,10.0,10.0,66,0.00,BKN,,0.02,0.0,WeatherDisplay:10.37,2013-02-08 21:39:00,
2013-02-08 22:44:00,42.3,31.7,29.74,ESE,105,10.4,10.4,66,0.00,SCT,,0.02,0.0,WeatherDisplay:10.37,2013-02-08 21:44:00,
2013-02-08 22:49:00,42.1,31.9,29.74,East,85,9.2,9.2,67,0.00,SCT,,0.02,0.0,WeatherDisplay:10.37,2013-02-08 21:49:00,
2013-02-08 22:54:00,41.9,31.7,29.74,East,90,9.2,9.2,67,0.00,SCT,,0.02,0.0,WeatherDisplay:10.37,2013-02-08 21:54:00,
2013-02-08 22:59:00,41.6,31.4,29.73,East,87,9.2,9.2,67,0.00,SCT,,0.02,0.0,WeatherDisplay:10.37,2013-02-08 21:59:00,
2013-02-08 23:04:00,41.4,31.3,29.74,ENE,70,8.1,8.1,67,0.00,FEW,,0.02,0.0,WeatherDisplay:10.37,2013-02-08 22:04:00,
2013-02-08 23:09:00,41.3,31.2,29.73,NNW,336,5.8,5.8,67,0.00,FEW,,0.02,0.0,WeatherDisplay:10.37,2013-02-08 22:09:00,
2013-02-08 23:14:00,41.3,31.2,29.74,South,181,3.5,3.5,67,0.00,FEW,,0.02,0.0,WeatherDisplay:10.37,2013-02-08 22:14:00,
2013-02-08 23:19:00,41.1,31.3,29.73,WSW,238,4.0,4.0,68,0.00,FEW,,0.02,0.0,WeatherDisplay:10.37,2013-02-08 22:19:00,
2013-02-08 23:24:00,40.9,31.1,29.74,SW,224,3.5,3.5,68,0.00,FEW,,0.02,0.0,WeatherDisplay:10.37,2013-02-08 22:24:00,
2013-02-08 23:29:00,40.7,31.3,29.74,NNW,338,5.0,5.0,69,0.00,FEW,,0.02,0.0,WeatherDisplay:10.37,2013-02-08 22:29:00,
2013-02-08 23:34:00,40.7,31.3,29.74,East,94,4.6,4.6,69,0.00,FEW,,0.02,0.0,WeatherDisplay:10.37,2013-02-08 22:34:00,
2013-02-08 23:39:00,40.8,31.1,29.74,SSW,197,8.1,8.1,68,0.00,FEW,,0.02,0.0,WeatherDisplay:10.37,2013-02-08 22:39:00,
2013-02-08 23:44:00,40.9,31.1,29.74,North,5,8.1,8.1,68,0.00,FEW,,0.02,0.0,WeatherDisplay:10.37,2013-02-08 22:44:00,
2013-02-08 23:49:00,40.9,31.1,29.74,ENE,78,3.5,3.5,68,0.00,FEW,,0.02,0.0,WeatherDisplay:10.37,2013-02-08 22:49:00,
2013-02-08 23:54:00,40.8,31.1,29.74,WSW,249,4.6,4.6,68,0.00,FEW,,0.02,0.0,WeatherDisplay:10.37,2013-02-08 22:54:00,
2013-02-08 23:59:00,40.7,31.0,29.74,West,260,4.6,4.6,68,0.00,FEW,,0.02,0.0,WeatherDisplay:10.37,2013-02-08 22:59:00,